Terminal Aerodrome Forecast
Issued by NWS

Current Version | Previous Version | Text Only | Print | Product List | Glossary Off
Versions: 1 2 3 4 5 6 7 8 9 10 11 12 13 14 15 16 17 18 19 20 21 22

000
FTUS41 KILN 130500
TAFLUK
TAF
KLUK 130529Z 1306/1406 20008KT P6SM SCT250
     FM131400 20018G28KT P6SM SCT040 BKN150
     FM132300 19012KT P6SM BKN150=

USA.gov is the U.S. government's official web portal to all federal, state and local government web resources and services.